Impacts METAR Board
IDs:

KTPA - Tampa Intl Arpt, FL, US

Updated at: 0700 UTC 24 Sep 2018
Potential Impact None Slight Moderate High
Time 23/19Z 23/20Z 23/21Z 23/22Z 23/23Z 24/00Z 24/01Z 24/02Z 24/03Z 24/04Z 24/05Z 24/06Z 24/07Z
Temp90 91 87 83 82 82 83 84 84 83 82 81 81
Dewpt74 73 73 74 73 74 75 74 73 73 73 73 73
Altim29.96 29.95 29.95 29.94 29.95 29.97 29.98 30.00 30.02 30.01 30.02 30.00 29.99
VIS10 10 10 10 10 10 10 10 10 10 10 10 10
CIG42 45 60 36 55 260 240 250 65 -- -- 250 --
CoverBKNBKNOVCBKNBKNOVCBKNOVCBKNSCTSCTBKNSCT
FltCatVFRVFRVFRVFRVFRVFRVFRVFRVFRVFRVFRVFRVFR
WX----TSRATSVCTS----------------
WDir25020903602400001008009080
WSpd7 5 7 8 4 0 0 0 4 6 4 3 4
WGst-- -- -- -- -- -- -- -- -- -- -- -- --
Raw hourly METARs
KTPA 231853Z 25007KT 10SM BKN042CB 32/23 A2996 RMK AO2 RAB40E49 SLP145 CB W-NW MOV NW TCU ALQDS VCSH W P0000 T03220233
KTPA 231953Z 02005KT 10SM BKN045TCU BKN080 BKN300 33/23 A2995 RMK AO2 LTG DSNT NW SLP139 CB DSNT NW TCU ALQDS VCSH NW-N T03280228
KTPA 232105Z COR 09007KT 040V130 10SM TSRA SCT036CB OVC060 31/23 A2995 RMK AO2 LTG DSNT NW RAB01 TSE2059B01 PRESRR VIS N-SE 1 FRQ LTGICCG OHD-N-SE TS OHD-N-SE MOV W TCU ALQDS P0000 T03060228
KTPA 232153Z 36008KT 10SM TS SCT012 BKN036CB 28/23 A2994 RMK AO2 LTG DSNT S RAB01E51 TSE2059B01B10 SLP139 OCNL LTGICCG NW-NE TS NW-NE MOV NW CB DSNT ALQDS TCU ALQDS VCSH ALQDS P0097 T02830233 $
KTPA 232253Z 24004KT 10SM VCTS FEW039TCU BKN055 BKN230 28/23 A2995 RMK AO2 LTG DSNT S-W SLP142 CB DSNT S-W TCU S-W VCSH S-W AND NW T02780228 $
KTPA 232353Z 00000KT 10SM FEW035 OVC260 28/23 A2997 RMK AO2 LTG DSNT W AND NW SLP147 CONS LTGICCCCG DSNT S-W CB DSNT S-W SHRA DSNT W 60097 T02780233 10339 20261 53013 $
KTPA 240053Z 00000KT 10SM FEW025 SCT050 BKN240 28/24 A2998 RMK AO2 LTG DSNT W AND NW SLP152 CONS LTGICCC DSNT W-NW CB DSNT W-NW T02830239 $
KTPA 240153Z 00000KT 10SM FEW020 SCT060 OVC250 29/23 A3000 RMK AO2 SLP159 FRQ LTGIC DSNT S AND W-N CB DSNT S AND W-N T02890233 $
KTPA 240253Z 10004KT 10SM BKN065 BKN240 29/23 A3002 RMK AO2 SLP163 T02890228 51016 $
KTPA 240353Z 08006KT 10SM FEW065 SCT250 28/23 A3001 RMK AO2 SLP162 CONS LTGICCA DSNT NW CB DSNT NW T02830228 $
KTPA 240453Z VRB04KT 10SM SCT250 28/23 A3002 RMK AO2 SLP165 T02780228 403390256 $
KTPA 240553Z 09003KT 10SM FEW180 BKN250 27/23 A3000 RMK AO2 SLP160 T02720228 10289 20272 58003 $
KTPA 240653Z 08004KT 10SM FEW190 SCT250 27/23 A2999 RMK AO2 SLP156 T02720228 $



Page loaded:  07:11 UTC  |   12:11 AM Pacific  |   01:11 AM Mountain  |   02:11 AM Central  |   03:11 AM Eastern

 

ADVISORIES

FORECASTS

FORECASTS

OBSERVATIONS

USER TOOLS

ABOUT US